Time;durP1;ratioP1;P1;durP2;ratioP2;P2;SDS_P1;SDS_P2;PMS_P1;PMS_P2;Temp;Humidity;BMP_temperature;BMP_pressure;BME280_temperature;BME280_humidity;BME280_pressure;Samples;Min_cycle;Max_cycle;Signal;HPM_P1;HPM_P2
2022/08/17 00:01:07;;;;;;;8.32;7.55;;;21.50;99.90;;;;;;5043024;28;20471;-82
2022/08/17 00:03:37;;;;;;;8.57;7.88;;;21.50;99.90;;;;;;5070304;28;20433;-81
2022/08/17 00:06:12;;;;;;;8.02;7.22;;;21.50;99.90;;;;;;5079627;28;20131;-81
2022/08/17 00:08:44;;;;;;;9.10;8.20;;;21.60;99.90;;;;;;5065368;28;20464;-81
2022/08/17 00:11:16;;;;;;;8.98;8.20;;;21.60;99.90;;;;;;5076412;28;20063;-80
2022/08/17 00:13:48;;;;;;;8.48;7.88;;;21.60;99.90;;;;;;5069518;28;20059;-80
2022/08/17 00:16:30;;;;;;;9.07;8.27;;;21.50;99.90;;;;;;5042321;28;20024;-80
2022/08/17 00:19:03;;;;;;;9.65;8.77;;;21.50;99.90;;;;;;5053239;28;20044;-81
2022/08/17 00:21:30;;;;;;;8.57;7.88;;;21.40;99.90;;;;;;5064317;28;20036;-80
2022/08/17 00:23:55;;;;;;;7.22;6.63;;;21.40;99.90;;;;;;5049188;28;20452;-80
2022/08/17 00:26:22;;;;;;;9.57;8.75;;;21.40;99.90;;;;;;5069663;28;20020;-82
2022/08/17 00:28:48;;;;;;;9.88;8.82;;;21.40;99.90;;;;;;5061226;28;20115;-80
2022/08/17 00:31:14;;;;;;;9.55;8.68;;;21.40;99.90;;;;;;5078710;28;20425;-81
2022/08/17 00:33:42;;;;;;;7.75;7.13;;;21.40;99.90;;;;;;5072857;28;20123;-81
2022/08/17 00:36:08;;;;;;;7.18;6.57;;;21.40;99.90;;;;;;5066349;28;20544;-81
2022/08/17 00:38:35;;;;;;;8.30;7.55;;;21.40;99.90;;;;;;5067182;28;20427;-81
2022/08/17 00:41:18;;;;;;;9.55;8.70;;;21.40;99.90;;;;;;5069335;28;20112;-80
2022/08/17 00:43:49;;;;;;;8.35;7.60;;;21.30;99.90;;;;;;5070660;28;20471;-81
2022/08/17 00:46:25;;;;;;;7.63;6.93;;;21.20;99.90;;;;;;5054483;28;20040;-80
2022/08/17 00:48:51;;;;;;;8.90;8.00;;;21.20;99.90;;;;;;5063290;28;20118;-81
2022/08/17 00:51:46;;;;;;;9.57;8.77;;;21.10;99.90;;;;;;5046996;28;20028;-80
2022/08/17 00:54:26;;;;;;;9.35;8.55;;;21.10;99.90;;;;;;5067491;28;20035;-82
2022/08/17 00:56:56;;;;;;;9.57;8.68;;;21.10;99.90;;;;;;5078662;28;20089;-80
2022/08/17 00:59:25;;;;;;;9.05;8.23;;;21.00;99.90;;;;;;5061804;28;20025;-80
2022/08/17 01:01:51;;;;;;;;;;;21.00;99.90;;;;;;5078330;28;20262;-81
2022/08/17 01:04:19;;;;;;;9.23;8.43;;;21.00;99.90;;;;;;5077231;28;20327;-81
2022/08/17 01:06:48;;;;;;;8.13;7.43;;;21.00;99.90;;;;;;5051647;28;20484;-81
2022/08/17 01:09:16;;;;;;;9.60;8.77;;;21.10;99.90;;;;;;5064715;28;20029;-81
2022/08/17 01:11:43;;;;;;;9.88;8.88;;;21.00;99.90;;;;;;5052191;28;20032;-81
2022/08/17 01:14:09;;;;;;;11.32;10.27;;;21.00;99.90;;;;;;5059564;28;20056;-83
2022/08/17 01:16:36;;;;;;;10.45;9.55;;;21.00;99.90;;;;;;5052995;28;20113;-81
2022/08/17 01:19:09;;;;;;;11.27;10.27;;;21.00;99.90;;;;;;5053319;28;20548;-81
2022/08/17 01:21:59;;;;;;;10.30;9.27;;;21.00;99.90;;;;;;5074975;28;20365;-81
2022/08/17 01:24:25;;;;;;;8.68;7.88;;;21.00;99.90;;;;;;5050142;28;20039;-82
2022/08/17 01:26:51;;;;;;;9.57;8.80;;;21.00;99.90;;;;;;5063475;28;20082;-80
2022/08/17 01:29:18;;;;;;;9.10;8.40;;;21.00;99.90;;;;;;5067274;28;20115;-81
2022/08/17 01:31:52;;;;;;;11.80;8.32;;;20.90;99.90;;;;;;5046329;28;20031;-80
2022/08/17 01:34:19;;;;;;;8.25;7.63;;;20.80;99.90;;;;;;5075910;28;20499;-82
2022/08/17 01:36:48;;;;;;;10.70;9.75;;;20.80;99.90;;;;;;5076322;28;20051;-80
2022/08/17 01:39:19;;;;;;;10.87;9.97;;;20.70;99.90;;;;;;5053020;28;20392;-82
2022/08/17 01:41:47;;;;;;;10.63;9.68;;;20.70;99.90;;;;;;5045734;28;20027;-81
2022/08/17 01:44:15;;;;;;;11.30;10.30;;;20.70;99.90;;;;;;5068047;28;20496;-81
2022/08/17 01:46:41;;;;;;;10.20;9.40;;;20.60;99.90;;;;;;5057134;28;20024;-82
2022/08/17 01:49:09;;;;;;;11.15;9.88;;;20.60;99.90;;;;;;5063168;28;20035;-81
2022/08/17 01:51:35;;;;;;;10.40;9.50;;;20.50;99.90;;;;;;5052474;28;20022;-82
2022/08/17 01:54:05;;;;;;;10.70;9.77;;;20.50;99.90;;;;;;5051527;28;20036;-80
2022/08/17 01:56:32;;;;;;;9.38;8.48;;;20.50;99.90;;;;;;5050439;28;20105;-80
2022/08/17 01:58:58;;;;;;;10.45;9.52;;;20.40;99.90;;;;;;5080902;28;20024;-81
2022/08/17 02:01:27;;;;;;;9.45;8.57;;;20.40;99.90;;;;;;5068490;28;20050;-81
2022/08/17 02:03:53;;;;;;;9.98;9.05;;;20.40;99.90;;;;;;5068901;28;20031;-80
2022/08/17 02:06:18;;;;;;;10.25;9.25;;;20.30;99.90;;;;;;5064099;28;20066;-80
2022/08/17 02:08:45;;;;;;;10.90;9.90;;;20.20;99.90;;;;;;5062233;28;20104;-81
2022/08/17 02:11:15;;;;;;;11.35;10.40;;;20.20;99.90;;;;;;5075525;28;20034;-80
2022/08/17 02:13:47;;;;;;;11.25;10.15;;;20.20;99.90;;;;;;5063827;28;20115;-80
2022/08/17 02:16:14;;;;;;;10.60;9.63;;;20.20;99.90;;;;;;5058166;28;20111;-80
2022/08/17 02:18:40;;;;;;;7.93;7.25;;;20.10;99.90;;;;;;5065856;28;20128;-82
2022/08/17 02:21:06;;;;;;;9.57;8.68;;;20.20;99.90;;;;;;5063164;28;20154;-81
2022/08/17 02:23:35;;;;;;;10.23;9.32;;;20.20;99.90;;;;;;5050281;28;20038;-80
2022/08/17 02:26:00;;;;;;;10.80;9.85;;;20.20;99.90;;;;;;5075583;28;20036;-80
2022/08/17 02:28:27;;;;;;;11.30;10.30;;;20.20;99.90;;;;;;5077606;28;20104;-81
2022/08/17 02:30:54;;;;;;;10.80;9.85;;;20.10;99.90;;;;;;5075876;28;20100;-81
2022/08/17 02:33:20;;;;;;;8.25;7.55;;;20.20;99.90;;;;;;5045716;28;20116;-81
2022/08/17 02:35:47;;;;;;;10.43;9.52;;;20.10;99.90;;;;;;5053910;28;20055;-80
2022/08/17 02:38:13;;;;;;;12.55;11.40;;;20.10;99.90;;;;;;5058904;28;20033;-81
2022/08/17 02:40:40;;;;;;;11.45;10.35;;;20.00;99.90;;;;;;5063017;28;20484;-80
2022/08/17 02:43:07;;;;;;;8.73;7.95;;;19.90;99.90;;;;;;5061681;28;20029;-80
2022/08/17 02:45:33;;;;;;;10.70;9.80;;;19.90;99.90;;;;;;5076785;28;20123;-80
2022/08/17 02:47:59;;;;;;;9.15;8.35;;;19.90;99.90;;;;;;5058186;28;20115;-81
2022/08/17 02:50:25;;;;;;;11.93;10.68;;;19.90;99.90;;;;;;5064975;28;20032;-82
2022/08/17 02:52:52;;;;;;;12.20;11.05;;;19.90;99.90;;;;;;5051718;28;20029;-81
2022/08/17 02:55:27;;;;;;;12.30;11.23;;;19.90;99.90;;;;;;5051051;28;20299;-80
2022/08/17 02:57:53;;;;;;;11.52;10.45;;;19.90;99.90;;;;;;5062906;28;20027;-83
2022/08/17 03:00:28;;;;;;;15.18;13.68;;;19.80;99.90;;;;;;5052661;28;20032;-82
2022/08/17 03:02:55;;;;;;;10.60;9.60;;;19.80;99.90;;;;;;5059934;28;20020;-81
2022/08/17 03:05:24;;;;;;;12.77;11.65;;;19.80;99.90;;;;;;5062457;28;20032;-81
2022/08/17 03:07:50;;;;;;;12.63;11.43;;;19.80;99.90;;;;;;5062487;28;20070;-82
2022/08/17 03:10:16;;;;;;;13.40;12.18;;;19.80;99.90;;;;;;5068696;28;20028;-82
2022/08/17 03:12:45;;;;;;;11.90;10.82;;;19.70;99.90;;;;;;5050675;28;20040;-81
2022/08/17 03:15:15;;;;;;;13.30;12.05;;;19.70;99.90;;;;;;5061757;28;20089;-80
2022/08/17 03:17:41;;;;;;;14.40;13.10;;;19.70;99.90;;;;;;5060350;28;20023;-83
2022/08/17 03:20:07;;;;;;;12.43;11.18;;;19.70;99.90;;;;;;5059869;28;20021;-81
2022/08/17 03:22:42;;;;;;;13.07;11.80;;;19.70;99.90;;;;;;5067723;28;20362;-81
2022/08/17 03:25:11;;;;;;;12.60;11.40;;;19.70;99.90;;;;;;5073303;28;20056;-83
2022/08/17 03:27:37;;;;;;;11.43;10.50;;;19.70;99.90;;;;;;5066952;28;20082;-81
2022/08/17 03:30:09;;;;;;;11.75;10.75;;;19.70;99.90;;;;;;5043873;28;20029;-81
2022/08/17 03:32:44;;;;;;;12.57;11.30;;;19.70;99.90;;;;;;5059980;28;20029;-81
2022/08/17 03:35:13;;;;;;;12.25;11.15;;;19.70;99.90;;;;;;5061636;28;20106;-80
2022/08/17 03:37:39;;;;;;;14.00;12.73;;;19.70;99.90;;;;;;5057836;28;20507;-82
2022/08/17 03:40:06;;;;;;;12.90;11.77;;;19.70;99.90;;;;;;5043208;28;20045;-81
2022/08/17 03:42:33;;;;;;;12.82;11.75;;;19.70;99.90;;;;;;5051522;28;20028;-80
2022/08/17 03:45:02;;;;;;;12.45;11.13;;;19.70;99.90;;;;;;5063986;28;20436;-81
2022/08/17 03:58:14;;;;;;;13.50;12.13;;;19.60;99.90;;;;;;5067716;28;20074;-80
2022/08/17 04:00:42;;;;;;;12.32;11.23;;;19.60;99.90;;;;;;5062026;28;20037;-81
2022/08/17 04:03:07;;;;;;;15.15;13.65;;;19.60;99.90;;;;;;5066639;28;20431;-80
2022/08/17 04:05:33;;;;;;;15.07;13.57;;;19.60;99.90;;;;;;5057612;28;20043;-81
2022/08/17 04:07:59;;;;;;;13.98;12.77;;;19.60;99.90;;;;;;5062849;28;20074;-80
2022/08/17 04:10:25;;;;;;;14.35;13.05;;;19.60;99.90;;;;;;5058531;28;20024;-82
2022/08/17 04:12:53;;;;;;;14.27;12.90;;;19.70;99.90;;;;;;5066659;28;20132;-81
2022/08/17 04:15:20;;;;;;;14.15;12.88;;;19.60;99.90;;;;;;5049530;28;20036;-82
2022/08/17 04:17:45;;;;;;;13.27;11.98;;;19.60;99.90;;;;;;5061446;28;20029;-81
2022/08/17 04:20:14;;;;;;;11.45;10.45;;;19.60;99.90;;;;;;5057608;28;20098;-81
2022/08/17 04:22:58;;;;;;;10.15;9.18;;;19.60;99.90;;;;;;5047907;28;20171;-82
2022/08/17 04:25:26;;;;;;;10.60;9.65;;;19.60;99.90;;;;;;5046518;28;20033;-81
2022/08/17 04:27:52;;;;;;;15.93;14.45;;;19.60;99.90;;;;;;5058066;28;20035;-80
2022/08/17 04:30:18;;;;;;;13.80;12.43;;;19.70;99.90;;;;;;5065889;28;20032;-81
2022/08/17 04:33:01;;;;;;;13.40;11.68;;;19.70;99.90;;;;;;5062498;28;20491;-83
2022/08/17 04:35:30;;;;;;;14.30;12.90;;;19.60;99.90;;;;;;5057734;28;20039;-83
2022/08/17 04:37:57;;;;;;;13.63;12.38;;;19.60;99.90;;;;;;5059930;28;20035;-82
2022/08/17 04:43:16;;;;;;;13.85;12.13;;;19.80;99.90;;;;;;5066280;28;20098;-82
2022/08/17 04:45:57;;;;;;;12.25;11.15;;;19.80;99.90;;;;;;5043511;28;20091;-82
2022/08/17 04:48:28;;;;;;;10.40;9.30;;;19.80;99.90;;;;;;5057930;28;20028;-80
2022/08/17 04:50:54;;;;;;;11.25;10.27;;;19.90;99.90;;;;;;5058246;28;20346;-81
2022/08/17 04:53:20;;;;;;;12.43;11.23;;;19.90;99.90;;;;;;5049072;28;20023;-80
2022/08/17 04:55:47;;;;;;;12.13;11.02;;;19.90;99.90;;;;;;5046442;28;20115;-82
2022/08/17 04:58:13;;;;;;;10.18;9.18;;;19.90;99.90;;;;;;5048675;28;20478;-81
2022/08/17 05:00:39;;;;;;;12.40;11.10;;;19.90;99.90;;;;;;5065548;28;20080;-81
2022/08/17 05:03:05;;;;;;;13.85;12.55;;;19.90;99.90;;;;;;5055394;28;20036;-82
2022/08/17 05:05:37;;;;;;;12.80;11.70;;;19.80;99.90;;;;;;5058746;28;20048;-82
2022/08/17 05:08:05;;;;;;;13.48;12.20;;;19.90;99.90;;;;;;5057230;28;20025;-83
2022/08/17 05:10:33;;;;;;;13.18;12.02;;;19.90;99.90;;;;;;5066654;28;20492;-81
2022/08/17 05:13:08;;;;;;;13.35;12.07;;;19.90;99.90;;;;;;5058183;28;20029;-82
2022/08/17 05:15:36;;;;;;;13.80;11.82;;;19.90;99.90;;;;;;5055186;28;20032;-81
2022/08/17 05:18:02;;;;;;;11.90;10.90;;;19.90;99.90;;;;;;5064212;28;20027;-81
2022/08/17 05:20:29;;;;;;;12.35;11.18;;;20.00;99.90;;;;;;5041379;28;20503;-81
2022/08/17 05:22:58;;;;;;;12.55;11.32;;;20.10;99.90;;;;;;5056938;28;20410;-81
2022/08/17 05:25:29;;;;;;;12.75;11.48;;;20.20;99.90;;;;;;5048722;28;20127;-81
2022/08/17 05:27:55;;;;;;;12.27;11.18;;;20.20;99.90;;;;;;5054172;28;20115;-81
2022/08/17 05:30:22;;;;;;;11.80;10.70;;;20.30;99.90;;;;;;5056921;28;20382;-80
2022/08/17 05:32:57;;;;;;;13.52;12.25;;;20.40;99.90;;;;;;5039832;28;20052;-80
2022/08/17 05:35:25;;;;;;;13.32;11.93;;;20.40;99.90;;;;;;5060225;28;20036;-81
2022/08/17 05:37:50;;;;;;;12.30;11.18;;;20.50;99.90;;;;;;5046325;28;20036;-81
2022/08/17 05:40:17;;;;;;;14.95;13.45;;;20.50;99.90;;;;;;5063503;28;20126;-81
2022/08/17 05:42:43;;;;;;;13.57;12.10;;;20.50;99.90;;;;;;5048560;28;20025;-81
2022/08/17 05:45:09;;;;;;;13.07;11.77;;;20.60;99.90;;;;;;5054768;28;20097;-81
2022/08/17 05:47:38;;;;;;;12.63;11.48;;;20.60;99.90;;;;;;5054235;28;20040;-81
2022/08/17 05:50:06;;;;;;;11.43;10.32;;;20.70;99.90;;;;;;5056414;28;20037;-81
2022/08/17 05:52:48;;;;;;;13.63;12.32;;;20.70;99.90;;;;;;5067811;28;20032;-81
2022/08/17 05:55:30;;;;;;;15.48;13.98;;;20.60;99.90;;;;;;5053054;28;20056;-80
2022/08/17 05:58:50;;;;;;;17.77;15.98;;;20.60;99.90;;;;;;5063747;28;20025;-81
2022/08/17 06:01:33;;;;;;;17.23;15.52;;;20.50;99.90;;;;;;4985640;28;20049;-81
2022/08/17 06:04:10;;;;;;;21.33;19.23;;;20.50;99.90;;;;;;4968696;28;20068;-81
2022/08/17 06:06:43;;;;;;;24.75;22.20;;;20.40;99.90;;;;;;4986040;28;20206;-81
2022/08/17 06:09:37;;;;;;;28.42;25.52;;;20.30;99.90;;;;;;4984454;28;20085;-82
2022/08/17 06:12:26;;;;;;;23.85;21.65;;;20.10;99.90;;;;;;4984942;28;20037;-80
2022/08/17 06:15:23;;;;;;;14.85;13.45;;;20.10;99.90;;;;;;4985293;28;20061;-81
2022/08/17 06:17:55;;;;;;;21.30;19.08;;;20.20;99.90;;;;;;4984633;28;20038;-81
2022/08/17 06:20:21;;;;;;;21.15;18.95;;;20.30;99.90;;;;;;4977111;28;20026;-81
2022/08/17 06:22:53;;;;;;;19.40;17.40;;;20.30;99.90;;;;;;4969105;28;20101;-81
2022/08/17 06:26:02;;;;;;;15.35;13.95;;;20.40;99.90;;;;;;4968199;28;20038;-81
2022/08/17 06:28:37;;;;;;;14.50;12.90;;;20.40;99.90;;;;;;4987034;28;20034;-81
2022/08/17 06:31:21;;;;;;;17.70;16.10;;;20.40;99.90;;;;;;4950465;28;20038;-81
2022/08/17 06:33:47;;;;;;;12.60;11.38;;;20.50;99.90;;;;;;4972201;28;20037;-80
2022/08/17 06:36:39;;;;;;;15.35;13.77;;;20.60;99.90;;;;;;5020303;28;20117;-82
2022/08/17 06:39:20;;;;;;;16.92;15.30;;;20.60;99.90;;;;;;5000926;28;20057;-80
2022/08/17 06:42:09;;;;;;;15.73;14.18;;;20.60;99.90;;;;;;4984689;28;20116;-81
2022/08/17 06:44:55;;;;;;;11.68;10.65;;;20.70;99.90;;;;;;4998760;28;20053;-81
2022/08/17 06:47:34;;;;;;;15.30;13.90;;;20.90;99.90;;;;;;4995915;28;20486;-81
2022/08/17 06:50:03;;;;;;;;;;;21.00;99.90;;;;;;4984212;28;20460;-81
2022/08/17 06:52:33;;;;;;;20.05;18.05;;;21.20;99.90;;;;;;4999869;28;19921;-80
2022/08/17 06:55:10;;;;;;;18.27;16.48;;;21.20;99.90;;;;;;4986696;28;20479;-80
2022/08/17 06:57:42;;;;;;;17.10;15.38;;;21.50;99.90;;;;;;4986335;28;20034;-80
2022/08/17 07:00:12;;;;;;;20.15;18.25;;;21.60;99.90;;;;;;4986653;28;20029;-80
2022/08/17 07:03:07;;;;;;;14.77;13.32;;;21.70;99.90;;;;;;5013416;28;20409;-80
2022/08/17 07:06:05;;;;;;;19.23;17.33;;;21.80;99.90;;;;;;5024592;28;20038;-80
2022/08/17 07:08:41;;;;;;;12.50;11.25;;;21.80;99.90;;;;;;5038230;28;20029;-81
2022/08/17 07:11:22;;;;;;;12.77;11.57;;;22.00;99.90;;;;;;5039722;28;20033;-81
2022/08/17 07:14:02;;;;;;;13.23;11.10;;;22.10;99.90;;;;;;5036138;28;20040;-81
2022/08/17 07:16:45;;;;;;;14.30;13.00;;;22.30;99.90;;;;;;5026291;28;20104;-81
2022/08/17 07:19:15;;;;;;;9.88;8.55;;;22.20;99.90;;;;;;5023149;28;20029;-81
2022/08/17 07:21:41;;;;;;;;;;;22.30;99.90;;;;;;5040867;28;20025;-81
2022/08/17 07:24:21;;;;;;;11.48;10.38;;;22.40;99.90;;;;;;5024615;28;19935;-81
2022/08/17 07:27:00;;;;;;;14.77;13.45;;;22.40;99.90;;;;;;5037787;28;20115;-81
2022/08/17 07:29:26;;;;;;;11.50;10.43;;;22.40;99.90;;;;;;5037659;28;20030;-81
2022/08/17 07:31:54;;;;;;;10.77;9.75;;;22.50;99.90;;;;;;5044719;28;20378;-80
2022/08/17 07:34:19;;;;;;;11.18;10.20;;;22.60;99.90;;;;;;5040855;28;20024;-81
2022/08/17 07:36:45;;;;;;;15.25;13.63;;;22.70;99.90;;;;;;5038728;28;20021;-81
2022/08/17 07:39:11;;;;;;;16.05;13.20;;;22.60;99.90;;;;;;5030053;28;20044;-81
2022/08/17 07:41:39;;;;;;;15.75;14.20;;;22.50;99.90;;;;;;5046685;28;20055;-81
2022/08/17 07:44:11;;;;;;;14.25;12.85;;;22.50;99.90;;;;;;5068600;28;20028;-81
2022/08/17 07:49:44;;;;;;;13.32;12.15;;;22.40;99.90;;;;;;5077640;28;20475;-80
2022/08/17 07:52:31;;;;;;;11.32;10.30;;;22.60;99.90;;;;;;5079770;28;20039;-81
2022/08/17 07:54:57;;;;;;;23.20;20.80;;;22.60;99.90;;;;;;5067584;28;20030;-81
2022/08/17 07:57:31;;;;;;;16.83;15.40;;;22.30;99.90;;;;;;5063024;28;20111;-81
2022/08/17 08:00:00;;;;;;;13.63;12.32;;;22.30;99.90;;;;;;5076216;28;20024;-81
2022/08/17 08:02:39;;;;;;;16.70;14.10;;;22.60;99.90;;;;;;5078550;28;20103;-80
2022/08/17 08:05:22;;;;;;;13.07;11.85;;;22.60;99.90;;;;;;5047295;28;20062;-81
2022/08/17 08:07:54;;;;;;;11.32;10.30;;;22.80;99.90;;;;;;5077127;28;20024;-80
2022/08/17 08:10:37;;;;;;;7.22;6.55;;;23.00;99.90;;;;;;5062382;28;20024;-81
2022/08/17 08:13:10;;;;;;;10.27;9.35;;;23.20;99.90;;;;;;5072317;28;20024;-81
2022/08/17 08:15:41;;;;;;;11.65;10.45;;;23.20;99.90;;;;;;5074806;28;20043;-80
2022/08/17 08:18:22;;;;;;;15.75;14.13;;;23.30;99.90;;;;;;5072187;28;20028;-81
2022/08/17 08:20:48;;;;;;;13.98;12.68;;;23.20;99.90;;;;;;5062280;28;20017;-81
2022/08/17 08:23:35;;;;;;;17.65;15.95;;;23.20;99.90;;;;;;5072522;28;20639;-81
2022/08/17 08:26:25;;;;;;;20.98;18.95;;;23.40;99.90;;;;;;5056573;28;20413;-80
2022/08/17 08:29:35;;;;;;;16.25;14.45;;;23.20;99.90;;;;;;5072754;28;20495;-82
2022/08/17 08:32:31;;;;;;;12.90;11.80;;;23.70;99.90;;;;;;5070853;28;20024;-81
2022/08/17 08:35:07;;;;;;;12.77;11.60;;;24.10;99.90;;;;;;5072132;28;20032;-81
2022/08/17 08:37:36;;;;;;;11.60;10.40;;;24.40;99.90;;;;;;5073889;28;20434;-82
2022/08/17 08:40:26;;;;;;;13.27;11.98;;;24.60;99.90;;;;;;5072090;28;20558;-82
2022/08/17 08:43:09;;;;;;;15.65;14.07;;;24.70;99.90;;;;;;5072394;28;20043;-83
2022/08/17 08:45:55;;;;;;;18.20;16.60;;;24.60;99.90;;;;;;5075086;28;20068;-79
2022/08/17 08:48:54;;;;;;;14.55;13.13;;;24.20;99.90;;;;;;5055527;28;20033;-81
2022/08/17 08:51:30;;;;;;;15.10;13.50;;;24.10;99.90;;;;;;5056884;28;20045;-81
2022/08/17 08:54:04;;;;;;;8.05;7.20;;;24.20;99.90;;;;;;5072921;28;20031;-81
2022/08/17 08:56:48;;;;;;;12.85;10.88;;;24.30;99.90;;;;;;5062587;28;20460;-81
2022/08/17 08:59:40;;;;;;;21.55;19.55;;;24.40;99.90;;;;;;5053416;28;20655;-82
2022/08/17 09:02:40;;;;;;;13.20;11.90;;;24.10;99.90;;;;;;5071521;28;20024;-82
2022/08/17 09:05:41;;;;;;;15.98;14.23;;;24.40;99.90;;;;;;5073537;28;20553;-82
2022/08/17 09:08:09;;;;;;;20.10;18.23;;;24.60;99.90;;;;;;5070597;28;20038;-82
2022/08/17 09:10:38;;;;;;;15.80;14.30;;;24.50;99.90;;;;;;5058521;28;20032;-82
2022/08/17 09:13:27;;;;;;;15.90;14.25;;;24.40;99.90;;;;;;5061621;28;22239;-83
2022/08/17 09:15:58;;;;;;;13.05;11.35;;;24.50;99.90;;;;;;5054966;28;20508;-83
2022/08/17 09:18:39;;;;;;;13.10;11.35;;;24.90;99.90;;;;;;5057547;28;20043;-82
2022/08/17 09:21:12;;;;;;;14.68;13.38;;;25.10;99.90;;;;;;5057218;28;20684;-81
2022/08/17 09:24:11;;;;;;;13.02;11.63;;;24.90;99.90;;;;;;5058306;28;20116;-83
2022/08/17 09:26:47;;;;;;;13.30;11.90;;;25.00;99.90;;;;;;5060443;28;20105;-83
2022/08/17 09:29:15;;;;;;;19.52;17.73;;;25.10;99.90;;;;;;5075203;28;20055;-83
2022/08/17 09:31:54;;;;;;;9.75;8.82;;;25.00;99.90;;;;;;5040282;28;20032;-83
2022/08/17 09:34:36;;;;;;;13.55;12.25;;;25.30;99.90;;;;;;5054183;28;20040;-81
2022/08/17 09:37:26;;;;;;;21.48;19.17;;;25.10;99.90;;;;;;5056772;28;20036;-79
2022/08/17 09:40:16;;;;;;;10.30;9.30;;;24.50;99.90;;;;;;5072491;28;20036;-80
2022/08/17 09:42:53;;;;;;;10.73;9.70;;;24.70;99.90;;;;;;5044016;28;20032;-79
2022/08/17 09:45:25;;;;;;;8.23;7.25;;;25.10;99.90;;;;;;5059811;28;20062;-80
2022/08/17 09:48:04;;;;;;;14.82;13.43;;;25.20;99.90;;;;;;5072942;28;20024;-81
2022/08/17 09:50:41;;;;;;;12.55;11.40;;;24.80;99.90;;;;;;5052961;28;20032;-80
2022/08/17 09:53:08;;;;;;;15.85;14.43;;;25.10;99.90;;;;;;5074403;28;20806;-82
2022/08/17 09:55:57;;;;;;;9.05;8.07;;;24.90;99.90;;;;;;5054321;28;20029;-81
2022/08/17 09:58:31;;;;;;;9.52;8.65;;;25.00;99.90;;;;;;5035508;28;20042;-80
2022/08/17 10:01:06;;;;;;;13.05;11.75;;;25.00;99.90;;;;;;5040169;28;20412;-81
2022/08/17 10:04:13;;;;;;;11.18;9.27;;;25.10;99.90;;;;;;5041411;28;20028;-82
2022/08/17 10:07:14;;;;;;;13.45;12.05;;;24.90;99.90;;;;;;4976030;28;20041;-83
2022/08/17 10:10:01;;;;;;;16.65;14.30;;;24.70;99.90;;;;;;4975408;28;20375;-82
2022/08/17 10:12:56;;;;;;;16.98;15.23;;;24.60;99.90;;;;;;5001406;28;20045;-83
2022/08/17 10:15:57;;;;;;;14.40;12.80;;;24.40;99.90;;;;;;4985294;28;20065;-82
2022/08/17 10:18:38;;;;;;;11.35;10.25;;;24.50;99.90;;;;;;4985030;28;20124;-82
2022/08/17 10:27:02;;;;;;;16.13;14.63;;;24.60;99.90;;;;;;5000982;28;20092;-83
2022/08/17 10:29:38;;;;;;;15.55;13.95;;;24.30;99.90;;;;;;5002244;28;20128;-82
2022/08/17 10:32:10;;;;;;;10.65;9.75;;;24.30;99.90;;;;;;4988415;28;20026;-83
2022/08/17 10:34:58;;;;;;;13.13;11.88;;;24.40;99.90;;;;;;5001779;28;20034;-83
2022/08/17 10:37:39;;;;;;;12.43;11.35;;;24.40;99.90;;;;;;5001888;28;20046;-83
2022/08/17 10:40:31;;;;;;;11.88;9.85;;;24.50;99.90;;;;;;4968065;28;20145;-82
2022/08/17 10:43:25;;;;;;;13.85;11.65;;;24.60;99.90;;;;;;5023554;28;20035;-83
2022/08/17 10:46:16;;;;;;;11.40;10.10;;;24.60;99.90;;;;;;5037371;28;20037;-83
2022/08/17 10:48:42;;;;;;;16.15;14.55;;;24.60;99.90;;;;;;5040497;28;20071;-83
2022/08/17 10:51:41;;;;;;;13.70;12.30;;;24.30;99.90;;;;;;5055044;28;20032;-84
2022/08/17 10:54:38;;;;;;;8.73;7.88;;;24.20;99.90;;;;;;5032972;28;20041;-84
2022/08/17 10:57:26;;;;;;;11.48;10.27;;;24.30;99.90;;;;;;5065701;28;20468;-82
2022/08/17 10:59:57;;;;;;;14.63;13.23;;;24.40;99.90;;;;;;5075777;28;20036;-82
2022/08/17 11:02:26;;;;;;;14.38;12.50;;;24.30;99.90;;;;;;5047364;28;20286;-83
2022/08/17 11:05:19;;;;;;;12.18;11.07;;;24.20;99.90;;;;;;5058716;28;20159;-82
2022/08/17 11:07:50;;;;;;;14.48;13.10;;;24.40;99.90;;;;;;5056629;28;20052;-82
2022/08/17 11:10:38;;;;;;;12.93;11.73;;;24.40;99.90;;;;;;5067457;28;20050;-83
2022/08/17 11:13:25;;;;;;;10.63;9.60;;;24.50;99.90;;;;;;5060832;28;20051;-82
2022/08/17 11:16:29;;;;;;;19.40;17.38;;;24.40;99.90;;;;;;5062215;28;20147;-84
2022/08/17 11:19:28;;;;;;;20.88;18.67;;;24.20;99.90;;;;;;5065847;28;20114;-82
2022/08/17 11:21:57;;;;;;;19.15;17.35;;;24.20;99.90;;;;;;5057703;28;20424;-83
2022/08/17 11:24:43;;;;;;;12.30;11.10;;;24.30;99.90;;;;;;5072986;28;20177;-83
2022/08/17 11:27:25;;;;;;;15.15;13.65;;;24.40;99.90;;;;;;5073994;28;20044;-81
2022/08/17 11:29:53;;;;;;;12.40;11.30;;;24.40;99.90;;;;;;5061062;28;20032;-83
2022/08/17 11:32:36;;;;;;;10.52;9.43;;;24.50;99.90;;;;;;5040737;28;20032;-83
2022/08/17 11:35:19;;;;;;;21.15;18.92;;;24.50;99.90;;;;;;5064511;28;20115;-81
2022/08/17 11:37:45;;;;;;;16.17;14.57;;;24.10;99.90;;;;;;5063702;28;20034;-82
2022/08/17 11:40:23;;;;;;;16.60;15.10;;;24.10;99.90;;;;;;5050040;28;20135;-81
2022/08/17 11:43:04;;;;;;;20.25;18.30;;;24.00;99.90;;;;;;5020447;28;20044;-80
2022/08/17 11:45:39;;;;;;;22.58;20.20;;;23.70;99.90;;;;;;5045826;28;20049;-81
2022/08/17 11:51:32;;;;;;;27.08;24.23;;;23.10;99.90;;;;;;5061642;28;20110;-84
2022/08/17 11:53:58;;;;;;;24.48;21.98;;;22.90;99.90;;;;;;5027971;28;20033;-82
2022/08/17 11:56:34;;;;;;;25.20;22.55;;;22.90;99.90;;;;;;5037424;28;20072;-81
2022/08/17 11:59:01;;;;;;;23.33;20.98;;;22.70;99.90;;;;;;5037971;28;20048;-81
2022/08/17 12:01:27;;;;;;;22.98;20.77;;;22.70;99.90;;;;;;5044984;28;20052;-82
2022/08/17 12:04:14;;;;;;;24.55;22.15;;;22.60;99.90;;;;;;5019889;28;20029;-80
2022/08/17 12:06:45;;;;;;;25.42;22.88;;;22.50;99.90;;;;;;5057129;28;20040;-81
2022/08/17 12:09:29;;;;;;;22.20;20.08;;;22.50;99.90;;;;;;5037503;28;20139;-82
2022/08/17 12:12:11;;;;;;;24.92;22.42;;;22.50;99.90;;;;;;5035341;28;20541;-82
2022/08/17 12:14:39;;;;;;;22.80;20.60;;;22.50;99.90;;;;;;5028249;28;20021;-82
2022/08/17 12:17:12;;;;;;;25.88;23.50;;;22.50;99.90;;;;;;5027946;28;20492;-81
2022/08/17 12:19:41;;;;;;;25.30;22.63;;;22.30;99.90;;;;;;5044395;28;20034;-82
2022/08/17 12:22:32;;;;;;;25.17;22.88;;;22.20;99.90;;;;;;5055825;28;20083;-81
2022/08/17 12:25:13;;;;;;;25.98;23.52;;;22.20;99.90;;;;;;5026529;28;20048;-83
2022/08/17 12:27:46;;;;;;;18.73;16.75;;;22.10;99.90;;;;;;5045716;28;20044;-82
2022/08/17 12:30:15;;;;;;;16.85;15.40;;;22.10;99.90;;;;;;5045103;28;20131;-82
2022/08/17 12:32:44;;;;;;;17.23;15.60;;;22.10;99.90;;;;;;5035168;28;20053;-81
2022/08/17 12:35:34;;;;;;;14.95;13.50;;;22.10;99.90;;;;;;5037071;28;20044;-79
2022/08/17 12:38:02;;;;;;;10.73;9.73;;;22.30;99.90;;;;;;5044114;28;20453;-81
2022/08/17 12:40:30;;;;;;;13.77;12.32;;;22.40;99.90;;;;;;5043601;28;20084;-81
2022/08/17 12:43:18;;;;;;;12.43;11.15;;;22.30;99.90;;;;;;5026355;28;20029;-81
2022/08/17 12:45:52;;;;;;;13.75;12.63;;;22.30;99.90;;;;;;5055766;28;20044;-81
2022/08/17 12:48:24;;;;;;;11.18;10.10;;;22.30;99.90;;;;;;5035593;28;20432;-81
2022/08/17 12:50:50;;;;;;;14.13;12.93;;;22.30;99.90;;;;;;5034568;28;20032;-81
2022/08/17 12:53:25;;;;;;;14.88;13.38;;;22.30;99.90;;;;;;5027098;28;20059;-82
2022/08/17 12:55:52;;;;;;;15.93;14.48;;;22.30;99.90;;;;;;5054292;28;20041;-82
2022/08/17 12:58:23;;;;;;;17.88;16.08;;;22.20;99.90;;;;;;5035536;28;20032;-82
2022/08/17 13:00:58;;;;;;;27.48;24.73;;;22.20;99.90;;;;;;5026287;28;20036;-82
2022/08/17 13:03:30;;;;;;;26.00;23.55;;;21.90;99.90;;;;;;5025592;28;20111;-82
2022/08/17 13:05:59;;;;;;;25.70;23.30;;;21.90;99.90;;;;;;5042899;28;20036;-82
2022/08/17 13:08:30;;;;;;;25.70;23.13;;;21.80;99.90;;;;;;5035752;28;20086;-82
2022/08/17 13:11:04;;;;;;;22.00;19.90;;;21.90;99.90;;;;;;5035873;28;20047;-82
2022/08/17 13:13:35;;;;;;;17.70;16.10;;;21.90;99.90;;;;;;5035144;28;20374;-82
2022/08/17 13:16:03;;;;;;;20.70;18.80;;;22.10;99.90;;;;;;5008337;28;20041;-82
2022/08/17 13:18:35;;;;;;;23.58;21.35;;;21.80;99.90;;;;;;5036331;28;20125;-81
2022/08/17 13:21:01;;;;;;;29.98;27.02;;;21.80;99.90;;;;;;5017597;28;20495;-81
2022/08/17 13:23:28;;;;;;;31.80;28.70;;;21.70;99.90;;;;;;5043984;28;20067;-83
2022/08/17 13:26:05;;;;;;;32.08;28.95;;;21.60;99.90;;;;;;5044185;28;20531;-82
2022/08/17 13:28:33;;;;;;;27.38;24.67;;;21.60;99.90;;;;;;5042877;28;20021;-82
2022/08/17 13:31:26;;;;;;;25.65;23.08;;;21.50;99.90;;;;;;5024372;28;20268;-83
2022/08/17 13:34:25;;;;;;;25.95;23.05;;;21.50;99.90;;;;;;5024387;28;20044;-82
2022/08/17 13:37:12;;;;;;;34.88;31.17;;;21.60;99.90;;;;;;5016916;28;20025;-82